Time;durP1;ratioP1;P1;durP2;ratioP2;P2;SDS_P1;SDS_P2;PMS_P1;PMS_P2;Temp;Humidity;BMP_temperature;BMP_pressure;BME280_temperature;BME280_humidity;BME280_pressure;Samples;Min_cycle;Max_cycle;Signal;HPM_P1;HPM_P2
2022/05/06 00:01:44;;;;;;;55.47;34.78;;;11.40;99.90;;;;;;5095212;28;20016;-56
2022/05/06 00:04:10;;;;;;;65.28;36.47;;;11.40;99.90;;;;;;5095212;28;20027;-56
2022/05/06 00:06:36;;;;;;;65.85;38.50;;;11.40;99.90;;;;;;5094817;28;20024;-55
2022/05/06 00:09:03;;;;;;;77.40;39.80;;;11.30;99.90;;;;;;5094968;28;20112;-55
2022/05/06 00:11:29;;;;;;;70.70;38.75;;;11.40;99.90;;;;;;5094888;28;20073;-56
2022/05/06 00:13:55;;;;;;;65.72;38.40;;;11.30;99.90;;;;;;5093668;28;20024;-55
2022/05/06 00:16:21;;;;;;;76.35;39.50;;;11.30;99.90;;;;;;5094949;28;20020;-55
2022/05/06 00:18:48;;;;;;;83.70;42.88;;;11.40;99.90;;;;;;5095293;28;20024;-59
2022/05/06 00:21:14;;;;;;;148.68;40.55;;;11.30;99.90;;;;;;5095207;28;20024;-56
2022/05/06 00:23:39;;;;;;;99.07;48.15;;;11.40;99.90;;;;;;5095179;28;20455;-55
2022/05/06 00:26:05;;;;;;;102.22;48.38;;;11.40;99.90;;;;;;5094921;28;20024;-56
2022/05/06 00:28:31;;;;;;;110.80;52.08;;;11.30;99.90;;;;;;5095392;28;20022;-56
2022/05/06 00:30:57;;;;;;;136.88;56.60;;;11.30;99.90;;;;;;5095613;28;20028;-56
2022/05/06 00:33:24;;;;;;;159.45;59.17;;;11.20;99.90;;;;;;5095113;28;20016;-56
2022/05/06 00:35:57;;;;;;;143.60;62.28;;;11.20;99.90;;;;;;5094849;28;20259;-57
2022/05/06 00:38:24;;;;;;;141.00;61.15;;;11.30;99.90;;;;;;5095341;28;20020;-56
2022/05/06 00:40:50;;;;;;;151.32;62.40;;;11.30;99.90;;;;;;5095438;28;20384;-57
2022/05/06 00:43:16;;;;;;;153.52;65.72;;;11.40;99.90;;;;;;5094527;28;20020;-57
2022/05/06 00:45:48;;;;;;;175.30;70.35;;;11.40;99.90;;;;;;5095389;28;20027;-58
2022/05/06 00:48:15;;;;;;;;;;;11.30;99.90;;;;;;5095261;28;20103;-56
2022/05/06 00:50:45;;;;;;;173.40;70.75;;;11.20;99.90;;;;;;5094233;28;19904;-56
2022/05/06 00:53:12;;;;;;;246.02;71.80;;;11.20;99.90;;;;;;5094691;28;20047;-56
2022/05/06 00:55:38;;;;;;;192.48;78.28;;;11.30;99.90;;;;;;5093954;28;20480;-57
2022/05/06 00:58:03;;;;;;;198.07;76.35;;;11.40;99.90;;;;;;5094579;28;20081;-56
2022/05/06 01:00:29;;;;;;;267.23;74.78;;;11.50;99.90;;;;;;5094445;28;20023;-56
2022/05/06 01:02:55;;;;;;;173.88;74.93;;;11.40;99.90;;;;;;5094259;28;20024;-55
2022/05/06 01:05:24;;;;;;;186.50;75.57;;;11.30;99.90;;;;;;5094013;28;20020;-56
2022/05/06 01:07:53;;;;;;;218.05;74.60;;;11.30;99.90;;;;;;5093786;28;20024;-56
2022/05/06 01:10:21;;;;;;;192.43;78.20;;;11.30;99.90;;;;;;5093699;28;20099;-57
2022/05/06 01:12:47;;;;;;;192.90;75.15;;;11.40;99.90;;;;;;5093568;28;20016;-57
2022/05/06 01:15:22;;;;;;;169.27;73.93;;;11.50;99.90;;;;;;5093164;28;20027;-56
2022/05/06 01:17:50;;;;;;;170.52;72.80;;;11.50;99.90;;;;;;5093294;28;20016;-56
2022/05/06 01:20:17;;;;;;;170.57;74.32;;;11.50;99.90;;;;;;5093342;28;20024;-56
2022/05/06 01:22:53;;;;;;;167.48;73.55;;;11.30;99.90;;;;;;5093347;28;20053;-55
2022/05/06 01:25:23;;;;;;;173.07;76.40;;;11.30;99.90;;;;;;5093912;28;20024;-56
2022/05/06 01:27:55;;;;;;;305.08;71.80;;;11.30;99.90;;;;;;5093619;28;20027;-56
2022/05/06 01:30:41;;;;;;;208.18;81.88;;;11.40;99.90;;;;;;5093399;28;20020;-57
2022/05/06 01:33:10;;;;;;;189.40;74.50;;;11.50;99.90;;;;;;5093700;28;20105;-58
2022/05/06 01:35:42;;;;;;;175.88;74.80;;;11.50;99.90;;;;;;5091825;28;20381;-55
2022/05/06 01:38:10;;;;;;;149.25;64.70;;;11.60;99.90;;;;;;5092831;28;20266;-56
2022/05/06 01:40:46;;;;;;;146.45;63.90;;;11.50;99.90;;;;;;5093001;28;20028;-56
2022/05/06 01:43:14;;;;;;;165.82;68.05;;;11.50;99.90;;;;;;5093340;28;20389;-55
2022/05/06 01:45:42;;;;;;;161.73;67.80;;;11.50;99.90;;;;;;5092933;28;20024;-56
2022/05/06 01:48:09;;;;;;;164.88;64.95;;;11.50;99.90;;;;;;5093112;28;20032;-57
2022/05/06 01:50:39;;;;;;;158.88;65.28;;;11.50;99.90;;;;;;5093284;28;20024;-56
2022/05/06 01:53:08;;;;;;;157.65;65.82;;;11.50;99.90;;;;;;5093134;28;20099;-56
2022/05/06 01:55:33;;;;;;;140.52;62.45;;;11.50;99.90;;;;;;5092437;28;20031;-56
2022/05/06 01:57:59;;;;;;;159.30;60.55;;;11.50;99.90;;;;;;5092316;28;20028;-57
2022/05/06 02:00:25;;;;;;;168.13;56.40;;;11.50;99.90;;;;;;5092406;28;20469;-56
2022/05/06 02:02:51;;;;;;;128.93;56.85;;;11.40;99.90;;;;;;5093081;28;20025;-55
2022/05/06 02:05:17;;;;;;;142.52;59.38;;;11.40;99.90;;;;;;5092610;28;20024;-56
2022/05/06 02:07:51;;;;;;;148.57;60.35;;;11.40;99.90;;;;;;5092143;28;20028;-56
2022/05/06 02:10:21;;;;;;;135.18;55.95;;;11.40;99.90;;;;;;5092947;28;20308;-56
2022/05/06 02:12:47;;;;;;;133.38;56.22;;;11.40;99.90;;;;;;5093727;28;20028;-56
2022/05/06 02:15:18;;;;;;;122.07;57.40;;;11.40;99.90;;;;;;5092956;28;20036;-57
2022/05/06 02:17:44;;;;;;;134.43;55.42;;;11.40;99.90;;;;;;5093010;28;20016;-56
2022/05/06 02:20:11;;;;;;;135.80;58.22;;;11.30;99.90;;;;;;5092501;28;20428;-56
2022/05/06 02:22:42;;;;;;;131.65;56.17;;;11.40;99.90;;;;;;5093187;28;20031;-57
2022/05/06 02:25:09;;;;;;;150.90;57.95;;;11.40;99.90;;;;;;5093034;28;20035;-60
2022/05/06 02:27:38;;;;;;;165.88;59.50;;;11.40;99.90;;;;;;5092193;28;20028;-57
2022/05/06 02:35:34;;;;;;;216.05;58.15;;;11.30;99.90;;;;;;5091533;28;20062;-56
2022/05/06 02:38:00;;;;;;;167.88;61.05;;;11.30;99.90;;;;;;5092041;28;20020;-57
2022/05/06 02:40:27;;;;;;;169.60;61.95;;;11.50;99.90;;;;;;5092168;28;20442;-56
2022/05/06 02:42:52;;;;;;;154.55;60.17;;;11.60;99.90;;;;;;5092082;28;20107;-57
2022/05/06 02:45:18;;;;;;;164.35;62.55;;;11.50;99.90;;;;;;5091914;28;20107;-57
2022/05/06 02:47:44;;;;;;;152.50;60.85;;;11.50;99.90;;;;;;5092537;28;20028;-56
2022/05/06 02:50:09;;;;;;;170.20;63.10;;;11.50;99.90;;;;;;5092802;28;20028;-58
2022/05/06 02:52:35;;;;;;;168.35;64.43;;;11.60;99.90;;;;;;5092808;28;20052;-56
2022/05/06 02:55:00;;;;;;;158.52;61.67;;;11.50;99.90;;;;;;5091908;28;20031;-57
2022/05/06 02:57:26;;;;;;;262.52;58.97;;;11.50;99.90;;;;;;5092182;28;20027;-61
2022/05/06 02:59:52;;;;;;;172.73;65.18;;;11.60;99.90;;;;;;5092465;28;20016;-56
2022/05/06 03:02:18;;;;;;;168.57;61.53;;;11.60;99.90;;;;;;5092199;28;20031;-56
2022/05/06 03:04:43;;;;;;;165.15;60.85;;;11.60;99.90;;;;;;5092538;28;20032;-56
2022/05/06 03:07:09;;;;;;;151.77;57.22;;;11.50;99.90;;;;;;5090410;28;20032;-55
2022/05/06 03:09:35;;;;;;;144.25;60.38;;;11.30;99.90;;;;;;5091768;28;20027;-57
2022/05/06 03:12:01;;;;;;;157.48;61.28;;;11.30;99.90;;;;;;5092072;28;20495;-56
2022/05/06 03:14:27;;;;;;;165.52;60.80;;;11.30;99.90;;;;;;5092191;28;20052;-57
2022/05/06 03:16:52;;;;;;;145.68;59.08;;;11.30;99.90;;;;;;5091340;28;20027;-56
2022/05/06 03:19:18;;;;;;;152.70;59.83;;;11.30;99.90;;;;;;5091507;28;20055;-56
2022/05/06 03:21:52;;;;;;;164.32;60.08;;;11.30;99.90;;;;;;5091420;28;20020;-56
2022/05/06 03:24:18;;;;;;;151.25;59.70;;;11.40;99.90;;;;;;5091445;28;20439;-57
2022/05/06 03:26:45;;;;;;;160.35;56.50;;;11.30;99.90;;;;;;5091839;28;20035;-56
2022/05/06 03:29:11;;;;;;;160.73;59.13;;;11.50;99.90;;;;;;5091420;28;20081;-56
2022/05/06 03:31:37;;;;;;;164.80;60.70;;;11.40;99.90;;;;;;5091877;28;20035;-56
2022/05/06 03:34:04;;;;;;;152.18;58.25;;;11.40;99.90;;;;;;5091160;28;20052;-57
2022/05/06 03:36:30;;;;;;;161.60;61.80;;;11.40;99.90;;;;;;5091172;28;20473;-57
2022/05/06 03:38:55;;;;;;;197.63;60.15;;;11.30;99.90;;;;;;5091575;28;20027;-56
2022/05/06 03:41:21;;;;;;;168.00;61.63;;;11.40;99.90;;;;;;5091990;28;20047;-57
2022/05/06 03:43:47;;;;;;;182.23;60.55;;;11.40;99.90;;;;;;5091508;28;20032;-56
2022/05/06 03:46:13;;;;;;;171.30;60.13;;;11.50;99.90;;;;;;5092177;28;20057;-56
2022/05/06 03:48:39;;;;;;;163.48;58.67;;;11.50;99.90;;;;;;5090624;28;20081;-56
2022/05/06 03:51:24;;;;;;;157.40;59.00;;;11.50;99.90;;;;;;5091477;28;20063;-55
2022/05/06 03:53:54;;;;;;;154.32;55.50;;;11.40;99.90;;;;;;5091348;28;20063;-56
2022/05/06 03:56:24;;;;;;;163.63;55.03;;;11.50;99.90;;;;;;5091142;28;20541;-56
2022/05/06 03:58:50;;;;;;;185.02;57.92;;;11.60;99.90;;;;;;5091158;28;20020;-56
2022/05/06 04:01:17;;;;;;;156.40;56.30;;;11.60;99.90;;;;;;5091596;28;20028;-58
2022/05/06 04:03:43;;;;;;;161.90;57.28;;;11.50;99.90;;;;;;5091699;28;20038;-57
2022/05/06 04:06:09;;;;;;;167.35;57.25;;;11.40;99.90;;;;;;5090551;28;20483;-57
2022/05/06 04:08:34;;;;;;;154.65;54.95;;;11.40;99.90;;;;;;5090856;28;20063;-56
2022/05/06 04:11:00;;;;;;;149.02;54.45;;;11.40;99.90;;;;;;5092041;28;20038;-57
2022/05/06 04:13:26;;;;;;;135.75;52.22;;;11.40;99.90;;;;;;5092591;28;20020;-57
2022/05/06 04:15:52;;;;;;;136.52;49.72;;;11.40;99.90;;;;;;5091550;28;20110;-57
2022/05/06 04:18:18;;;;;;;132.23;50.67;;;11.40;99.90;;;;;;5091509;28;20032;-56
2022/05/06 04:23:29;;;;;;;139.18;52.15;;;11.20;99.90;;;;;;5091074;28;20396;-56
2022/05/06 04:25:59;;;;;;;147.52;53.97;;;11.20;99.90;;;;;;5089765;28;20020;-57
2022/05/06 04:28:26;;;;;;;159.15;54.97;;;11.20;99.90;;;;;;5090895;28;20186;-57
2022/05/06 04:30:52;;;;;;;163.25;55.95;;;11.20;99.90;;;;;;5094043;28;20075;-57
2022/05/06 04:33:18;;;;;;;160.10;56.72;;;11.30;99.90;;;;;;5095014;28;20070;-57
2022/05/06 04:35:45;;;;;;;158.57;57.13;;;11.40;99.90;;;;;;5094358;28;20063;-56
2022/05/06 04:38:11;;;;;;;170.77;57.15;;;11.40;99.90;;;;;;5093430;28;20434;-56
2022/05/06 04:40:38;;;;;;;166.10;56.03;;;11.60;99.90;;;;;;5092948;28;20028;-56
2022/05/06 04:43:04;;;;;;;188.02;54.65;;;11.60;99.90;;;;;;5092849;28;20031;-56
2022/05/06 04:45:30;;;;;;;166.68;54.78;;;11.60;99.90;;;;;;5092524;28;20024;-56
2022/05/06 04:47:56;;;;;;;158.95;54.67;;;11.70;99.90;;;;;;5092825;28;20020;-56
2022/05/06 04:50:24;;;;;;;268.75;56.17;;;11.60;99.90;;;;;;5092787;28;20024;-56
2022/05/06 04:52:52;;;;;;;164.60;53.75;;;11.70;99.90;;;;;;5093288;28;20378;-56
2022/05/06 04:55:17;;;;;;;321.52;53.63;;;11.70;99.90;;;;;;5093162;28;20038;-57
2022/05/06 04:57:43;;;;;;;281.88;53.60;;;11.70;99.90;;;;;;5093268;28;20024;-56
2022/05/06 05:00:09;;;;;;;524.80;58.60;;;11.60;99.90;;;;;;5092924;28;20070;-56
2022/05/06 05:02:35;;;;;;;459.55;58.42;;;11.60;99.90;;;;;;5092994;28;20104;-56
2022/05/06 05:05:03;;;;;;;293.73;51.13;;;11.70;99.90;;;;;;5092386;28;20100;-56
2022/05/06 05:07:28;;;;;;;481.20;57.30;;;11.70;99.90;;;;;;5093317;28;20028;-56
2022/05/06 05:09:54;;;;;;;252.40;56.55;;;11.60;99.90;;;;;;5092719;28;20039;-56
2022/05/06 05:12:20;;;;;;;194.45;53.88;;;11.60;99.90;;;;;;5092630;28;20036;-56
2022/05/06 05:14:45;;;;;;;342.73;52.35;;;11.40;99.90;;;;;;5090858;28;20126;-56
2022/05/06 05:17:11;;;;;;;477.63;56.35;;;11.30;99.90;;;;;;5091119;28;20020;-56
2022/05/06 05:19:37;;;;;;;481.38;52.55;;;11.20;99.90;;;;;;5092834;28;20095;-56
2022/05/06 05:22:04;;;;;;;265.83;50.50;;;11.10;99.90;;;;;;5092420;28;20031;-56
2022/05/06 05:24:30;;;;;;;365.15;56.30;;;11.00;99.90;;;;;;5092125;28;20028;-56
2022/05/06 05:26:57;;;;;;;413.17;54.08;;;11.10;99.90;;;;;;5092177;28;20052;-56
2022/05/06 05:29:23;;;;;;;230.63;55.25;;;11.10;99.90;;;;;;5092534;28;20577;-56
2022/05/06 05:31:50;;;;;;;287.77;53.70;;;11.30;99.90;;;;;;5093190;28;20020;-56
2022/05/06 05:34:16;;;;;;;209.10;53.00;;;11.30;99.90;;;;;;5092297;28;20119;-56
2022/05/06 05:36:41;;;;;;;247.40;51.00;;;11.20;99.90;;;;;;5092353;28;20587;-56
2022/05/06 05:39:07;;;;;;;182.20;52.13;;;11.20;99.90;;;;;;5092253;28;20099;-56
2022/05/06 05:41:33;;;;;;;232.80;47.53;;;11.30;99.90;;;;;;5090935;28;20055;-56
2022/05/06 05:49:28;;;;;;;139.75;39.85;;;11.20;99.90;;;;;;5091775;28;20085;-56
2022/05/06 05:51:54;;;;;;;224.35;52.20;;;11.10;99.90;;;;;;5078404;28;20051;-55
2022/05/06 05:54:19;;;;;;;204.98;51.03;;;10.90;99.90;;;;;;5069588;28;20035;-56
2022/05/06 05:56:45;;;;;;;206.32;47.67;;;11.10;99.90;;;;;;5070644;28;20126;-56
2022/05/06 05:59:11;;;;;;;174.52;47.70;;;11.10;99.90;;;;;;5064647;28;20073;-56
2022/05/06 06:01:37;;;;;;;185.48;49.63;;;11.20;99.90;;;;;;5062889;28;20439;-56
2022/05/06 06:04:03;;;;;;;150.02;51.25;;;11.30;99.90;;;;;;5069520;28;20081;-56
2022/05/06 06:06:29;;;;;;;143.15;51.20;;;11.40;99.90;;;;;;5068971;28;20059;-56
2022/05/06 06:08:54;;;;;;;143.07;49.00;;;11.60;99.90;;;;;;5067567;28;20047;-56
2022/05/06 06:11:20;;;;;;;140.18;50.42;;;11.80;99.90;;;;;;5059642;28;20025;-56
2022/05/06 06:13:46;;;;;;;135.75;50.08;;;12.00;99.90;;;;;;5060781;28;20521;-57
2022/05/06 06:16:12;;;;;;;140.70;49.22;;;12.00;99.90;;;;;;5059995;28;20021;-57
2022/05/06 06:18:37;;;;;;;131.00;48.30;;;12.10;99.90;;;;;;5056216;28;20057;-57
2022/05/06 06:21:03;;;;;;;132.85;49.85;;;12.40;99.90;;;;;;5054203;28;20146;-58
2022/05/06 06:23:32;;;;;;;121.38;46.28;;;12.50;99.90;;;;;;5053135;28;20048;-56
2022/05/06 06:25:58;;;;;;;115.13;46.17;;;12.50;99.90;;;;;;5053544;28;20086;-56
2022/05/06 06:28:23;;;;;;;119.20;45.92;;;12.30;99.90;;;;;;5060666;28;20269;-56
2022/05/06 06:30:49;;;;;;;113.85;43.95;;;12.40;99.90;;;;;;5051196;28;20145;-56
2022/05/06 06:33:16;;;;;;;110.38;44.00;;;12.30;99.90;;;;;;5058948;28;20123;-56
2022/05/06 06:35:41;;;;;;;107.65;44.30;;;12.40;99.90;;;;;;5056275;28;20283;-56
2022/05/06 06:38:07;;;;;;;97.95;40.03;;;12.40;99.90;;;;;;5050987;28;20111;-56
2022/05/06 06:40:34;;;;;;;95.07;39.88;;;12.40;99.90;;;;;;5052594;28;20453;-57
2022/05/06 06:43:04;;;;;;;84.88;37.33;;;12.40;99.90;;;;;;5057514;28;20039;-56
2022/05/06 06:45:30;;;;;;;73.85;34.40;;;12.30;99.90;;;;;;5053685;28;20024;-56
2022/05/06 06:47:57;;;;;;;78.32;34.63;;;12.30;99.90;;;;;;5057103;28;20028;-56
2022/05/06 06:50:24;;;;;;;87.57;37.38;;;12.40;99.90;;;;;;5054045;28;20062;-56
2022/05/06 06:52:50;;;;;;;95.93;40.65;;;12.40;99.90;;;;;;5056519;28;20552;-57
2022/05/06 06:55:17;;;;;;;96.38;40.63;;;12.50;99.90;;;;;;5056005;28;20056;-57
2022/05/06 06:57:43;;;;;;;98.32;42.38;;;12.60;99.90;;;;;;5053387;28;20351;-57
2022/05/06 07:00:10;;;;;;;97.97;42.53;;;12.80;99.90;;;;;;5051123;28;20118;-57
2022/05/06 07:02:36;;;;;;;101.72;41.50;;;12.80;99.90;;;;;;5053535;28;20566;-57
2022/05/06 07:05:03;;;;;;;108.07;43.53;;;12.90;99.90;;;;;;5055163;28;20327;-57
2022/05/06 07:12:56;;;;;;;109.85;45.92;;;12.90;99.90;;;;;;5059398;28;20040;-57
2022/05/06 07:15:23;;;;;;;123.53;47.15;;;12.90;99.90;;;;;;5060921;28;20032;-57
2022/05/06 07:17:49;;;;;;;121.22;48.45;;;12.90;99.90;;;;;;5060775;28;20071;-57
2022/05/06 07:20:14;;;;;;;118.38;47.65;;;13.10;99.90;;;;;;5064944;28;20497;-57
2022/05/06 07:22:40;;;;;;;119.40;49.65;;;13.20;99.90;;;;;;5058701;28;20085;-57
2022/05/06 07:25:06;;;;;;;116.43;48.50;;;13.10;99.90;;;;;;5062359;28;20081;-57
2022/05/06 07:27:35;;;;;;;117.28;49.15;;;13.10;99.90;;;;;;5061176;28;20032;-57
2022/05/06 07:30:06;;;;;;;95.60;44.22;;;13.30;99.90;;;;;;5060292;28;20102;-57
2022/05/06 07:32:32;;;;;;;103.07;46.03;;;13.20;99.90;;;;;;5061085;28;20028;-57
2022/05/06 07:34:58;;;;;;;84.47;41.40;;;13.30;99.90;;;;;;5059981;28;20041;-57
2022/05/06 07:37:24;;;;;;;97.28;45.10;;;13.50;99.90;;;;;;5057124;28;20027;-57
2022/05/06 07:39:50;;;;;;;99.20;46.75;;;13.50;99.90;;;;;;5061028;28;20032;-57
2022/05/06 07:42:16;;;;;;;88.25;43.60;;;13.80;99.90;;;;;;5060948;28;20028;-57
2022/05/06 07:44:42;;;;;;;93.05;45.28;;;14.00;99.90;;;;;;5061123;28;20056;-57
2022/05/06 07:47:08;;;;;;;85.30;43.45;;;14.30;99.90;;;;;;5061686;28;20081;-57
2022/05/06 07:49:33;;;;;;;79.22;41.97;;;14.80;99.90;;;;;;5058736;28;20115;-57
2022/05/06 07:51:59;;;;;;;81.13;43.45;;;15.10;99.90;;;;;;5063810;28;20061;-57
2022/05/06 07:54:25;;;;;;;81.20;43.72;;;15.40;99.90;;;;;;5059422;28;20043;-57
2022/05/06 07:56:50;;;;;;;84.80;43.95;;;15.60;99.90;;;;;;5060774;28;20103;-57
2022/05/06 07:59:16;;;;;;;87.10;45.05;;;15.90;99.90;;;;;;5061865;28;20114;-57
2022/05/06 08:04:36;;;;;;;82.13;44.53;;;17.00;99.90;;;;;;5058478;28;20028;-57
2022/05/06 08:07:04;;;;;;;89.40;47.65;;;17.00;99.90;;;;;;5058761;28;20162;-58
2022/05/06 08:09:30;;;;;;;76.60;43.22;;;17.60;99.90;;;;;;5061202;28;20044;-58
2022/05/06 08:11:55;;;;;;;71.10;41.13;;;19.20;99.90;;;;;;5063576;28;21669;-58
2022/05/06 08:14:21;;;;;;;70.10;40.97;;;20.30;99.90;;;;;;5064935;28;20066;-57
2022/05/06 08:16:48;;;;;;;69.65;39.85;;;19.90;99.90;;;;;;5062983;28;20151;-57
2022/05/06 08:19:14;;;;;;;67.97;40.40;;;19.50;99.90;;;;;;5062418;28;20048;-57
2022/05/06 08:21:40;;;;;;;69.95;40.60;;;20.00;99.90;;;;;;5064403;28;21081;-58
2022/05/06 08:24:06;;;;;;;62.30;38.03;;;20.30;99.90;;;;;;5066010;28;20035;-58
2022/05/06 08:26:33;;;;;;;65.80;38.63;;;20.50;99.90;;;;;;5065201;28;20090;-58
2022/05/06 08:28:59;;;;;;;61.90;36.47;;;20.00;99.90;;;;;;5066121;28;20101;-58
2022/05/06 08:31:25;;;;;;;60.92;36.95;;;19.90;99.90;;;;;;5064947;28;20489;-58
2022/05/06 08:33:50;;;;;;;60.83;35.08;;;20.30;99.90;;;;;;5062536;28;20119;-58
2022/05/06 08:36:16;;;;;;;55.58;34.88;;;21.40;99.90;;;;;;5055472;28;20446;-57
2022/05/06 08:38:43;;;;;;;57.75;34.40;;;22.00;99.90;;;;;;5061361;28;20031;-57
2022/05/06 08:41:10;;;;;;;55.17;33.50;;;22.70;99.90;;;;;;5061784;28;20048;-57
2022/05/06 08:43:37;;;;;;;56.22;33.38;;;22.60;99.80;;;;;;5062300;28;20021;-58
2022/05/06 08:51:37;;;;;;;48.53;30.02;;;21.20;99.90;;;;;;5061835;28;20036;-61
2022/05/06 08:54:03;;;;;;;50.90;30.67;;;21.80;99.90;;;;;;5066852;28;20040;-61
2022/05/06 08:56:31;;;;;;;45.35;28.88;;;21.80;99.90;;;;;;5063323;28;20033;-58
2022/05/06 08:58:57;;;;;;;45.35;28.42;;;21.40;99.90;;;;;;5061367;28;20523;-58
2022/05/06 09:01:23;;;;;;;44.20;28.65;;;21.60;99.90;;;;;;5062808;28;20037;-58
2022/05/06 09:03:49;;;;;;;46.47;29.38;;;22.50;99.80;;;;;;5065885;28;20028;-60
2022/05/06 09:06:31;;;;;;;46.20;29.23;;;22.80;98.90;;;;;;5063012;28;20032;-60
2022/05/06 09:08:59;;;;;;;48.20;29.23;;;23.30;98.10;;;;;;5065976;28;20085;-61
2022/05/06 09:17:18;;;;;;;41.97;27.63;;;23.00;98.20;;;;;;5059484;28;20113;-58
2022/05/06 09:19:44;;;;;;;42.60;26.25;;;23.10;97.70;;;;;;5060659;28;20017;-58
2022/05/06 09:22:14;;;;;;;44.20;27.23;;;24.50;96.10;;;;;;5064376;28;20037;-58
2022/05/06 09:24:41;;;;;;;41.30;25.90;;;25.30;93.80;;;;;;5064633;28;20046;-58
2022/05/06 09:27:14;;;;;;;36.58;24.58;;;25.60;92.80;;;;;;5066695;28;20032;-58
2022/05/06 09:29:41;;;;;;;37.70;24.10;;;24.60;92.50;;;;;;5064173;28;20033;-58
2022/05/06 09:32:27;;;;;;;37.90;23.23;;;23.70;94.40;;;;;;5066687;28;20024;-59
2022/05/06 09:34:56;;;;;;;34.88;23.48;;;24.40;93.30;;;;;;5062663;28;20568;-58
2022/05/06 09:37:48;;;;;;;37.30;23.27;;;24.30;93.20;;;;;;5065341;28;20024;-57
2022/05/06 09:40:18;;;;;;;32.08;21.70;;;24.50;92.90;;;;;;5061929;28;20032;-57
2022/05/06 09:42:57;;;;;;;31.92;21.48;;;24.20;92.90;;;;;;5067553;28;20024;-57
2022/05/06 09:45:32;;;;;;;30.10;20.35;;;25.00;91.70;;;;;;5063246;28;20027;-57
2022/05/06 09:48:00;;;;;;;34.58;21.73;;;24.90;91.70;;;;;;5064291;28;20063;-59
2022/05/06 09:50:40;;;;;;;29.15;19.13;;;25.10;91.70;;;;;;5064413;28;20028;-58
2022/05/06 09:53:09;;;;;;;27.10;18.00;;;25.40;90.80;;;;;;5061459;28;20439;-58
2022/05/06 09:55:44;;;;;;;25.60;16.73;;;25.50;90.30;;;;;;5064268;28;20106;-57
2022/05/06 09:58:11;;;;;;;30.55;17.25;;;24.70;91.80;;;;;;5063866;28;20240;-57
2022/05/06 10:00:40;;;;;;;33.40;17.73;;;24.50;91.60;;;;;;5061591;28;20024;-58
2022/05/06 10:03:07;;;;;;;24.02;16.15;;;25.40;90.60;;;;;;5055027;28;20024;-58
2022/05/06 10:05:34;;;;;;;24.92;17.13;;;25.50;89.90;;;;;;5061005;28;20037;-58
2022/05/06 10:08:13;;;;;;;22.88;15.90;;;26.00;87.50;;;;;;5060341;28;20038;-58
2022/05/06 10:10:44;;;;;;;23.10;15.98;;;26.40;87.60;;;;;;5066570;28;20165;-58
2022/05/06 10:13:15;;;;;;;24.40;17.83;;;26.00;88.40;;;;;;5062422;28;20094;-58
2022/05/06 10:15:41;;;;;;;26.90;16.15;;;25.90;88.00;;;;;;5068646;28;20056;-58
2022/05/06 10:18:07;;;;;;;25.40;15.63;;;26.10;86.00;;;;;;5058109;28;20464;-58
2022/05/06 10:20:36;;;;;;;24.83;16.20;;;26.70;84.10;;;;;;5055212;28;20027;-58
2022/05/06 10:23:09;;;;;;;22.75;15.77;;;27.00;83.00;;;;;;5059268;28;20029;-58
2022/05/06 10:25:41;;;;;;;24.58;15.50;;;26.20;84.20;;;;;;5051842;28;21008;-59
2022/05/06 10:34:10;;;;;;;25.33;15.23;;;28.20;80.00;;;;;;5057779;28;20374;-58
2022/05/06 10:36:45;;;;;;;29.40;15.40;;;27.60;79.90;;;;;;5056187;28;20057;-57
2022/05/06 10:39:35;;;;;;;19.35;13.52;;;27.60;79.90;;;;;;5065163;28;20032;-57
2022/05/06 10:42:08;;;;;;;17.95;11.70;;;26.20;80.80;;;;;;5061179;28;20127;-57
2022/05/06 10:44:50;;;;;;;24.65;12.27;;;25.60;82.30;;;;;;5054919;28;20031;-57
2022/05/06 10:47:16;;;;;;;18.15;11.88;;;25.50;82.40;;;;;;5055984;28;20036;-57
2022/05/06 10:49:43;;;;;;;19.70;13.00;;;25.00;84.00;;;;;;5059124;28;20448;-57
2022/05/06 10:52:28;;;;;;;21.88;12.30;;;23.70;88.80;;;;;;5055718;28;20036;-57
2022/05/06 10:54:55;;;;;;;18.77;11.95;;;23.90;88.10;;;;;;5064325;28;20432;-58
2022/05/06 10:57:22;;;;;;;16.50;10.02;;;25.30;85.20;;;;;;5060654;28;20481;-57
2022/05/06 10:59:53;;;;;;;15.18;10.57;;;25.90;81.50;;;;;;5057329;28;20366;-57
2022/05/06 11:02:27;;;;;;;14.48;10.40;;;25.90;81.70;;;;;;5059574;28;20028;-57
2022/05/06 11:04:54;;;;;;;20.70;11.48;;;24.80;82.70;;;;;;5059184;28;20028;-57
2022/05/06 11:07:20;;;;;;;10.90;8.98;;;24.50;83.80;;;;;;5056660;28;20033;-57
2022/05/06 11:09:48;;;;;;;12.77;10.25;;;25.10;81.20;;;;;;5062542;28;20029;-58
2022/05/06 11:12:35;;;;;;;14.57;10.77;;;25.20;81.10;;;;;;5062333;28;20028;-59
2022/05/06 11:15:03;;;;;;;14.25;10.15;;;25.70;80.40;;;;;;5064023;28;20029;-58
2022/05/06 11:17:31;;;;;;;14.75;10.40;;;25.40;80.90;;;;;;5068019;28;20082;-57
2022/05/06 11:19:57;;;;;;;13.43;10.55;;;24.00;83.90;;;;;;5069015;28;20502;-57
2022/05/06 11:22:24;;;;;;;17.45;13.35;;;24.00;83.70;;;;;;5069107;28;20021;-57
2022/05/06 11:24:54;;;;;;;16.77;12.73;;;24.70;83.80;;;;;;5065534;28;20035;-57
2022/05/06 11:27:21;;;;;;;17.85;11.90;;;24.70;83.30;;;;;;5067707;28;20056;-58
2022/05/06 11:29:55;;;;;;;16.27;10.95;;;24.50;83.80;;;;;;5062956;28;20769;-57
2022/05/06 11:32:26;;;;;;;14.05;10.68;;;25.10;83.90;;;;;;5062974;28;20027;-57
2022/05/06 11:34:54;;;;;;;12.20;9.93;;;25.90;82.00;;;;;;5066800;28;20448;-58
2022/05/06 11:37:22;;;;;;;14.35;9.68;;;27.70;76.80;;;;;;5057126;28;20036;-57
2022/05/06 11:39:49;;;;;;;12.80;10.43;;;27.80;75.10;;;;;;5066874;28;20017;-57
2022/05/06 11:42:36;;;;;;;17.23;12.18;;;27.80;74.70;;;;;;5071555;28;20021;-57
2022/05/06 11:47:46;;;;;;;15.55;11.05;;;27.90;74.80;;;;;;5064706;28;20039;-57
2022/05/06 11:50:12;;;;;;;13.20;9.40;;;27.40;74.90;;;;;;5062178;28;20127;-57
2022/05/06 11:52:38;;;;;;;11.90;8.63;;;27.00;75.80;;;;;;5060690;28;20032;-57
2022/05/06 11:55:06;;;;;;;12.50;9.10;;;28.40;72.80;;;;;;5067545;28;20078;-57
2022/05/06 11:57:35;;;;;;;15.27;9.90;;;29.40;70.50;;;;;;5065695;28;20090;-57
2022/05/06 12:00:03;;;;;;;12.98;9.20;;;29.50;69.60;;;;;;5067455;28;20098;-57
2022/05/06 12:02:29;;;;;;;17.60;9.50;;;29.20;68.80;;;;;;5064510;28;20112;-59
2022/05/06 12:04:54;;;;;;;18.40;9.65;;;29.40;68.40;;;;;;5068345;28;20135;-57
2022/05/06 12:07:20;;;;;;;11.45;8.77;;;29.20;69.30;;;;;;5070943;28;20035;-57
2022/05/06 12:09:47;;;;;;;15.85;9.35;;;29.20;68.80;;;;;;5071549;28;20036;-57
2022/05/06 12:12:12;;;;;;;12.18;9.45;;;28.80;71.10;;;;;;5070857;28;20024;-57
2022/05/06 12:14:39;;;;;;;10.85;9.57;;;28.00;72.00;;;;;;5070543;28;20435;-57
2022/05/06 12:17:13;;;;;;;12.90;9.30;;;28.90;70.80;;;;;;5057701;28;20486;-57
2022/05/06 12:19:43;;;;;;;10.85;9.02;;;28.80;68.40;;;;;;5065211;28;20453;-57
2022/05/06 12:22:09;;;;;;;8.77;7.88;;;29.60;68.60;;;;;;5062601;28;20029;-57
2022/05/06 12:24:50;;;;;;;11.35;8.18;;;30.70;66.60;;;;;;5070162;28;20052;-57
2022/05/06 12:27:37;;;;;;;10.18;8.40;;;30.80;65.10;;;;;;5068480;28;20093;-57
2022/05/06 12:30:03;;;;;;;11.15;9.05;;;30.20;63.70;;;;;;5063099;28;20025;-57
2022/05/06 12:32:30;;;;;;;10.57;9.10;;;28.70;68.60;;;;;;5071354;28;20101;-57
2022/05/06 12:35:11;;;;;;;10.60;9.32;;;27.00;71.10;;;;;;5071666;28;20056;-57
2022/05/06 12:37:52;;;;;;;10.55;8.70;;;27.20;71.00;;;;;;5052198;28;20021;-56
2022/05/06 12:40:17;;;;;;;10.07;8.90;;;27.90;71.00;;;;;;5056903;28;20024;-56
2022/05/06 12:42:43;;;;;;;11.55;9.15;;;27.70;69.00;;;;;;5066992;28;20481;-56
2022/05/06 12:45:12;;;;;;;10.85;9.20;;;27.20;70.30;;;;;;5069286;28;20105;-57
2022/05/06 12:50:22;;;;;;;8.90;8.00;;;26.80;73.30;;;;;;5072650;28;20524;-57
2022/05/06 12:52:47;;;;;;;9.50;7.70;;;27.20;70.40;;;;;;5060637;28;20237;-56
2022/05/06 12:55:13;;;;;;;10.65;7.20;;;27.50;69.20;;;;;;5052660;28;20112;-56
2022/05/06 12:57:39;;;;;;;9.30;7.40;;;27.70;69.90;;;;;;5060555;28;20308;-56
2022/05/06 13:00:05;;;;;;;7.55;6.82;;;27.20;70.90;;;;;;5070306;28;20429;-56
2022/05/06 13:02:31;;;;;;;9.25;6.55;;;26.90;70.00;;;;;;5066750;28;20094;-56
2022/05/06 13:04:57;;;;;;;8.45;7.57;;;27.50;70.80;;;;;;5069866;28;20029;-57
2022/05/06 13:07:23;;;;;;;9.45;6.30;;;27.90;68.60;;;;;;5063321;28;20028;-56
2022/05/06 13:09:48;;;;;;;8.27;6.43;;;28.50;68.20;;;;;;5061997;28;20041;-57
2022/05/06 13:12:14;;;;;;;9.13;6.85;;;27.90;67.40;;;;;;5050790;28;20032;-57